Time;durP1;ratioP1;P1;durP2;ratioP2;P2;SDS_P1;SDS_P2;PMS_P1;PMS_P2;Temp;Humidity;BMP_temperature;BMP_pressure;BME280_temperature;BME280_humidity;BME280_pressure;Samples;Min_cycle;Max_cycle;Signal;HPM_P1;HPM_P2
2023/01/25 00:01:44;;;;;;;30.63;16.50;;;;;;;;;;5014375;28;20042;-75
2023/01/25 00:04:10;;;;;;;30.98;17.15;;;;;;;;;;5025741;28;20550;-75
2023/01/25 00:06:36;;;;;;;30.08;16.23;;;;;;;;;;5034149;28;20053;-75
2023/01/25 00:09:02;;;;;;;31.85;16.55;;;;;;;;;;5033003;28;20049;-75
2023/01/25 00:11:28;;;;;;;29.63;16.38;;;;;;;;;;5023498;28;20081;-75
2023/01/25 00:13:55;;;;;;;27.45;15.68;;;;;;;;;;5019951;28;20045;-75
2023/01/25 00:16:21;;;;;;;29.35;16.42;;;;;;;;;;5029110;28;20048;-75
2023/01/25 00:18:47;;;;;;;28.30;15.77;;;;;;;;;;5038497;28;20455;-75
2023/01/25 00:21:15;;;;;;;28.98;16.50;;;;;;;;;;5024521;28;20054;-75
2023/01/25 00:23:41;;;;;;;29.98;15.60;;;;;;;;;;5018832;28;20046;-75
2023/01/25 00:26:07;;;;;;;28.80;15.65;;;;;;;;;;5014724;28;20046;-75
2023/01/25 00:28:34;;;;;;;28.92;15.73;;;;;;;;;;5013888;28;20046;-75
2023/01/25 00:31:00;;;;;;;27.30;15.25;;;;;;;;;;5020600;28;20049;-74
2023/01/25 00:33:26;;;;;;;27.45;15.07;;;;;;;;;;5033418;28;20067;-75
2023/01/25 00:35:55;;;;;;;32.22;18.05;;;;;;;;;;5022487;28;20443;-74
2023/01/25 00:38:33;;;;;;;32.17;18.10;;;;;;;;;;5014660;28;20550;-74
2023/01/25 00:41:00;;;;;;;28.35;16.10;;;;;;;;;;5033648;28;20419;-75
2023/01/25 00:43:26;;;;;;;29.90;16.70;;;;;;;;;;5019645;28;20046;-75
2023/01/25 00:45:52;;;;;;;32.95;16.80;;;;;;;;;;5017549;28;20056;-75
2023/01/25 00:48:18;;;;;;;30.88;16.88;;;;;;;;;;5013858;28;20060;-75
2023/01/25 00:50:44;;;;;;;30.35;16.33;;;;;;;;;;5017661;28;20045;-74
2023/01/25 00:53:10;;;;;;;31.83;16.70;;;;;;;;;;5019359;28;20038;-75
2023/01/25 00:55:36;;;;;;;29.23;16.63;;;;;;;;;;5013962;28;20168;-75
2023/01/25 00:58:02;;;;;;;29.73;15.38;;;;;;;;;;5030132;28;20115;-74
2023/01/25 01:00:28;;;;;;;32.75;16.73;;;;;;;;;;5015846;28;20037;-74
2023/01/25 01:02:54;;;;;;;32.92;17.23;;;;;;;;;;5013856;28;20038;-75
2023/01/25 01:05:20;;;;;;;31.90;16.45;;;;;;;;;;5013574;28;20044;-75
2023/01/25 01:07:49;;;;;;;29.48;16.88;;;;;;;;;;5032371;28;20041;-75
2023/01/25 01:10:15;;;;;;;33.70;17.75;;;;;;;;;;5033546;28;20046;-75
2023/01/25 01:12:41;;;;;;;36.45;18.13;;;;;;;;;;5033046;28;20050;-75
2023/01/25 01:15:07;;;;;;;36.50;19.08;;;;;;;;;;5017488;28;20089;-75
2023/01/25 01:17:33;;;;;;;36.30;18.63;;;;;;;;;;5028115;28;20053;-75
2023/01/25 01:19:59;;;;;;;33.15;18.45;;;;;;;;;;5032719;28;20049;-75
2023/01/25 01:22:26;;;;;;;33.78;17.40;;;;;;;;;;5033179;28;20129;-74
2023/01/25 01:24:52;;;;;;;32.92;17.92;;;;;;;;;;5024921;28;20107;-75
2023/01/25 01:27:18;;;;;;;33.45;18.33;;;;;;;;;;5016512;28;20133;-75
2023/01/25 01:29:44;;;;;;;34.03;18.17;;;;;;;;;;5013185;28;20532;-75
2023/01/25 01:32:10;;;;;;;35.17;17.65;;;;;;;;;;5013406;28;20042;-75
2023/01/25 01:34:36;;;;;;;32.47;17.65;;;;;;;;;;5017186;28;20551;-75
2023/01/25 01:37:02;;;;;;;34.63;17.88;;;;;;;;;;5017247;28;20084;-75
2023/01/25 01:39:28;;;;;;;32.10;17.70;;;;;;;;;;5028796;28;20383;-75
2023/01/25 01:41:54;;;;;;;31.63;16.85;;;;;;;;;;5021259;28;20600;-75
2023/01/25 01:44:23;;;;;;;34.25;18.35;;;;;;;;;;5034572;28;20045;-75
2023/01/25 01:46:52;;;;;;;34.95;18.75;;;;;;;;;;5036730;28;20052;-75
2023/01/25 01:49:21;;;;;;;34.67;17.63;;;;;;;;;;5036893;28;20081;-75
2023/01/25 01:51:49;;;;;;;36.00;18.73;;;;;;;;;;5031934;28;20578;-75
2023/01/25 01:54:15;;;;;;;35.90;19.13;;;;;;;;;;5031268;28;20037;-75
2023/01/25 01:56:47;;;;;;;42.35;19.98;;;;;;;;;;5025841;28;20172;-75
2023/01/25 01:59:15;;;;;;;37.13;19.35;;;;;;;;;;5016468;28;20077;-75
2023/01/25 02:01:41;;;;;;;34.95;17.63;;;;;;;;;;5016511;28;20054;-75
2023/01/25 02:04:07;;;;;;;37.03;17.92;;;;;;;;;;5027603;28;20447;-75
2023/01/25 02:06:42;;;;;;;38.40;20.80;;;;;;;;;;5035334;28;20416;-75
2023/01/25 02:09:08;;;;;;;39.90;20.60;;;;;;;;;;5034146;28;20431;-75
2023/01/25 02:11:35;;;;;;;38.78;19.83;;;;;;;;;;5016001;28;20041;-74
2023/01/25 02:14:01;;;;;;;40.13;19.15;;;;;;;;;;5016540;28;20073;-75
2023/01/25 02:16:28;;;;;;;38.53;20.02;;;;;;;;;;5016346;28;20501;-75
2023/01/25 02:18:56;;;;;;;42.30;20.25;;;;;;;;;;5016165;28;20499;-75
2023/01/25 02:21:23;;;;;;;38.63;21.13;;;;;;;;;;5015881;28;20049;-75
2023/01/25 02:24:09;;;;;;;39.08;19.83;;;;;;;;;;5019774;28;20055;-75
2023/01/25 02:26:35;;;;;;;36.45;19.15;;;;;;;;;;5025652;28;20044;-74
2023/01/25 02:29:05;;;;;;;33.53;17.30;;;;;;;;;;5035805;28;20045;-75
2023/01/25 02:31:31;;;;;;;38.42;18.88;;;;;;;;;;5034975;28;20121;-75
2023/01/25 02:33:57;;;;;;;33.53;16.52;;;;;;;;;;5021412;28;20046;-75
2023/01/25 02:36:28;;;;;;;36.08;18.58;;;;;;;;;;5023538;28;20113;-75
2023/01/25 02:38:59;;;;;;;34.63;17.95;;;;;;;;;;5014078;28;20057;-75
2023/01/25 02:41:29;;;;;;;33.97;18.58;;;;;;;;;;5020606;28;20076;-74
2023/01/25 02:43:55;;;;;;;33.83;17.92;;;;;;;;;;5015652;28;20069;-74
2023/01/25 02:46:21;;;;;;;32.35;16.92;;;;;;;;;;5014586;28;20042;-75
2023/01/25 02:48:47;;;;;;;31.40;16.55;;;;;;;;;;5018888;28;20057;-75
2023/01/25 02:51:14;;;;;;;29.95;17.30;;;;;;;;;;5025165;28;20050;-75
2023/01/25 02:53:40;;;;;;;31.15;16.10;;;;;;;;;;5016015;28;20099;-75
2023/01/25 02:56:07;;;;;;;33.90;17.42;;;;;;;;;;5015920;28;20050;-75
2023/01/25 02:58:33;;;;;;;36.15;19.02;;;;;;;;;;5021166;28;20049;-75
2023/01/25 03:00:59;;;;;;;40.10;19.17;;;;;;;;;;5018653;28;20042;-75
2023/01/25 03:03:25;;;;;;;35.08;17.73;;;;;;;;;;5015896;28;20050;-75
2023/01/25 03:05:51;;;;;;;34.60;17.00;;;;;;;;;;5015259;28;20354;-75
2023/01/25 03:08:17;;;;;;;38.38;18.88;;;;;;;;;;5015352;28;20116;-75
2023/01/25 03:10:43;;;;;;;34.20;17.85;;;;;;;;;;5014886;28;20370;-75
2023/01/25 03:13:10;;;;;;;37.75;19.00;;;;;;;;;;5015316;28;20488;-75
2023/01/25 03:15:36;;;;;;;37.30;18.02;;;;;;;;;;5032965;28;20053;-75
2023/01/25 03:18:02;;;;;;;35.15;17.45;;;;;;;;;;5015900;28;20046;-75
2023/01/25 03:20:28;;;;;;;36.88;18.27;;;;;;;;;;5015456;28;20042;-75
2023/01/25 03:22:54;;;;;;;37.80;18.15;;;;;;;;;;5017686;28;20131;-75
2023/01/25 03:25:20;;;;;;;37.33;17.88;;;;;;;;;;5028482;28;20081;-75
2023/01/25 03:27:46;;;;;;;39.28;20.17;;;;;;;;;;5037201;28;20045;-74
2023/01/25 03:30:12;;;;;;;39.22;18.75;;;;;;;;;;5022799;28;20049;-75
2023/01/25 03:32:39;;;;;;;38.20;19.17;;;;;;;;;;5018351;28;20041;-75
2023/01/25 03:35:06;;;;;;;39.53;18.77;;;;;;;;;;5015210;28;20496;-75
2023/01/25 03:37:33;;;;;;;40.15;20.23;;;;;;;;;;5014519;28;20046;-74
2023/01/25 03:39:59;;;;;;;40.63;19.30;;;;;;;;;;5015173;28;20084;-75
2023/01/25 03:42:25;;;;;;;44.10;20.15;;;;;;;;;;5014825;28;20042;-74
2023/01/25 03:44:51;;;;;;;42.25;21.25;;;;;;;;;;5014901;28;20144;-75
2023/01/25 03:47:17;;;;;;;45.67;22.23;;;;;;;;;;5016097;28;20527;-75
2023/01/25 03:49:43;;;;;;;43.78;21.48;;;;;;;;;;5016960;28;20077;-75
2023/01/25 03:52:09;;;;;;;48.92;21.52;;;;;;;;;;5014636;28;20080;-75
2023/01/25 03:54:35;;;;;;;44.90;22.17;;;;;;;;;;5014255;28;20041;-75
2023/01/25 03:57:01;;;;;;;54.42;24.02;;;;;;;;;;5016469;28;20046;-75
2023/01/25 03:59:27;;;;;;;48.75;23.70;;;;;;;;;;5017965;28;20042;-75
2023/01/25 04:01:53;;;;;;;51.25;22.85;;;;;;;;;;5022796;28;20175;-74
2023/01/25 04:04:19;;;;;;;47.25;21.67;;;;;;;;;;5017508;28;20084;-74
2023/01/25 04:06:45;;;;;;;55.00;24.95;;;;;;;;;;5015572;28;20056;-74
2023/01/25 04:09:13;;;;;;;51.78;23.25;;;;;;;;;;5014545;28;20037;-75
2023/01/25 04:11:39;;;;;;;47.65;22.75;;;;;;;;;;5018142;28;20042;-75
2023/01/25 04:14:05;;;;;;;56.30;24.23;;;;;;;;;;5013906;28;20813;-75
2023/01/25 04:16:31;;;;;;;51.30;23.52;;;;;;;;;;5014207;28;20050;-75
2023/01/25 04:18:57;;;;;;;51.80;24.67;;;;;;;;;;5014449;28;20046;-74
2023/01/25 04:21:23;;;;;;;53.00;24.05;;;;;;;;;;5014366;28;20384;-75
2023/01/25 04:23:50;;;;;;;53.70;24.02;;;;;;;;;;5020351;28;20041;-75
2023/01/25 04:26:16;;;;;;;51.58;23.50;;;;;;;;;;5017595;28;20041;-75
2023/01/25 04:28:42;;;;;;;54.05;24.63;;;;;;;;;;5024862;28;20041;-73
2023/01/25 04:31:08;;;;;;;54.08;24.98;;;;;;;;;;5029898;28;20041;-74
2023/01/25 04:33:34;;;;;;;61.83;25.17;;;;;;;;;;5013925;28;20053;-74
2023/01/25 04:36:00;;;;;;;54.42;25.33;;;;;;;;;;5013925;28;20052;-75
2023/01/25 04:38:26;;;;;;;55.67;23.65;;;;;;;;;;5016638;28;20052;-75
2023/01/25 04:40:52;;;;;;;57.50;25.10;;;;;;;;;;5024094;28;20480;-75
2023/01/25 04:43:19;;;;;;;54.08;24.25;;;;;;;;;;5013833;28;20107;-75
2023/01/25 04:45:45;;;;;;;50.20;23.38;;;;;;;;;;5020578;28;20055;-74
2023/01/25 04:48:12;;;;;;;59.53;25.45;;;;;;;;;;5014079;28;20042;-74
2023/01/25 04:50:38;;;;;;;55.50;23.85;;;;;;;;;;5013679;28;20129;-75
2023/01/25 04:53:05;;;;;;;54.75;24.65;;;;;;;;;;5013959;28;20042;-74
2023/01/25 04:55:32;;;;;;;58.38;25.55;;;;;;;;;;5014148;28;20077;-75
2023/01/25 04:57:58;;;;;;;62.17;26.23;;;;;;;;;;5023608;28;20117;-74
2023/01/25 05:00:24;;;;;;;68.55;25.83;;;;;;;;;;5018692;28;20052;-75
2023/01/25 05:02:50;;;;;;;61.08;25.88;;;;;;;;;;5020300;28;20136;-74
2023/01/25 05:05:16;;;;;;;58.45;26.42;;;;;;;;;;5013448;28;20049;-75
2023/01/25 05:07:42;;;;;;;59.35;26.65;;;;;;;;;;5014023;28;20042;-75
2023/01/25 05:10:09;;;;;;;63.63;26.90;;;;;;;;;;5016115;28;20052;-75
2023/01/25 05:12:35;;;;;;;61.83;26.63;;;;;;;;;;5017431;28;20046;-74
2023/01/25 05:15:01;;;;;;;61.42;25.75;;;;;;;;;;5020837;28;20532;-74
2023/01/25 05:17:27;;;;;;;59.05;25.13;;;;;;;;;;5017375;28;20133;-75
2023/01/25 05:19:53;;;;;;;61.85;25.20;;;;;;;;;;5017246;28;20141;-75
2023/01/25 05:22:20;;;;;;;53.55;23.02;;;;;;;;;;5017677;28;20042;-75
2023/01/25 05:24:46;;;;;;;54.50;22.95;;;;;;;;;;5026915;28;20052;-75
2023/01/25 05:27:14;;;;;;;54.40;23.50;;;;;;;;;;5033983;28;20045;-75
2023/01/25 05:29:41;;;;;;;58.20;24.42;;;;;;;;;;5035516;28;20050;-75
2023/01/25 05:32:08;;;;;;;57.47;23.73;;;;;;;;;;5036328;28;20046;-75
2023/01/25 05:34:35;;;;;;;58.22;22.88;;;;;;;;;;5025695;28;20187;-74
2023/01/25 05:37:01;;;;;;;56.40;23.38;;;;;;;;;;5018382;28;20122;-75
2023/01/25 05:39:27;;;;;;;55.72;24.98;;;;;;;;;;5018140;28;20136;-75
2023/01/25 05:41:53;;;;;;;58.65;24.60;;;;;;;;;;5016914;28;20488;-75
2023/01/25 05:44:20;;;;;;;57.63;25.73;;;;;;;;;;5019977;28;20485;-75
2023/01/25 05:46:46;;;;;;;65.53;25.30;;;;;;;;;;5016590;28;20448;-74
2023/01/25 05:49:12;;;;;;;60.97;25.15;;;;;;;;;;5016357;28;20401;-75
2023/01/25 05:51:38;;;;;;;60.75;25.92;;;;;;;;;;5016549;28;20038;-74
2023/01/25 05:54:05;;;;;;;62.20;25.58;;;;;;;;;;5021162;28;20041;-74
2023/01/25 05:56:31;;;;;;;67.50;27.25;;;;;;;;;;5023456;28;20124;-75
2023/01/25 05:58:59;;;;;;;62.80;25.23;;;;;;;;;;5028597;28;20053;-74
2023/01/25 06:01:25;;;;;;;60.90;24.25;;;;;;;;;;5029010;28;20042;-75
2023/01/25 06:03:52;;;;;;;58.92;25.20;;;;;;;;;;5017571;28;20034;-75
2023/01/25 06:06:18;;;;;;;61.13;25.63;;;;;;;;;;5016175;28;20068;-75
2023/01/25 06:08:44;;;;;;;57.60;24.05;;;;;;;;;;5024734;28;20041;-75
2023/01/25 06:11:11;;;;;;;57.40;23.13;;;;;;;;;;5033546;28;20055;-75
2023/01/25 06:13:37;;;;;;;57.58;23.05;;;;;;;;;;5030995;28;20049;-75
2023/01/25 06:16:04;;;;;;;61.17;24.25;;;;;;;;;;5022450;28;20045;-74
2023/01/25 06:18:31;;;;;;;58.35;24.48;;;;;;;;;;5016385;28;20042;-75
2023/01/25 06:20:57;;;;;;;49.03;21.42;;;;;;;;;;5021654;28;20060;-75
2023/01/25 06:23:23;;;;;;;57.05;23.52;;;;;;;;;;5017989;28;20050;-76
2023/01/25 06:25:50;;;;;;;52.28;22.45;;;;;;;;;;5022856;28;20496;-74
2023/01/25 06:28:16;;;;;;;54.55;22.25;;;;;;;;;;5019231;28;20365;-75
2023/01/25 06:30:42;;;;;;;48.67;21.73;;;;;;;;;;5031010;28;20073;-75
2023/01/25 06:33:08;;;;;;;50.05;23.17;;;;;;;;;;5036403;28;20499;-75
2023/01/25 06:35:34;;;;;;;58.42;24.30;;;;;;;;;;5035510;28;20053;-75
2023/01/25 06:38:00;;;;;;;60.15;24.65;;;;;;;;;;5034843;28;20614;-75
2023/01/25 06:40:27;;;;;;;54.67;25.25;;;;;;;;;;5020970;28;20492;-75
2023/01/25 06:42:54;;;;;;;56.95;25.73;;;;;;;;;;5015985;28;20378;-75
2023/01/25 06:45:20;;;;;;;59.35;25.50;;;;;;;;;;5016164;28;20038;-75
2023/01/25 06:47:48;;;;;;;56.55;23.30;;;;;;;;;;5015570;28;20042;-75
2023/01/25 06:50:14;;;;;;;52.97;25.70;;;;;;;;;;5015482;28;20078;-75
2023/01/25 06:52:40;;;;;;;56.15;24.45;;;;;;;;;;5017761;28;20404;-75
2023/01/25 06:55:08;;;;;;;52.60;24.73;;;;;;;;;;5015797;28;20125;-75
2023/01/25 06:57:35;;;;;;;56.38;25.10;;;;;;;;;;5016350;28;20069;-75
2023/01/25 07:00:01;;;;;;;57.47;24.50;;;;;;;;;;5015585;28;20045;-74
2023/01/25 07:02:27;;;;;;;54.28;24.33;;;;;;;;;;5015610;28;20132;-75
2023/01/25 07:04:53;;;;;;;54.78;23.75;;;;;;;;;;5014999;28;20413;-74
2023/01/25 07:07:19;;;;;;;56.90;24.52;;;;;;;;;;5023227;28;20041;-75
2023/01/25 07:09:45;;;;;;;51.03;23.38;;;;;;;;;;5034113;28;20527;-75
2023/01/25 07:12:11;;;;;;;52.67;23.70;;;;;;;;;;5030622;28;20048;-75
2023/01/25 07:14:37;;;;;;;58.65;26.27;;;;;;;;;;5020884;28;20034;-75
2023/01/25 07:17:03;;;;;;;55.47;25.08;;;;;;;;;;5018508;28;20043;-74
2023/01/25 07:19:29;;;;;;;57.63;26.13;;;;;;;;;;5034143;28;20064;-74
2023/01/25 07:21:56;;;;;;;58.30;25.50;;;;;;;;;;5034651;28;20053;-75
2023/01/25 07:24:25;;;;;;;58.50;26.60;;;;;;;;;;5018103;28;20050;-74
2023/01/25 07:26:51;;;;;;;55.88;25.25;;;;;;;;;;5015687;28;20096;-74
2023/01/25 07:29:18;;;;;;;58.50;26.88;;;;;;;;;;5030448;28;20103;-74
2023/01/25 07:31:44;;;;;;;56.35;24.52;;;;;;;;;;5022720;28;20041;-74
2023/01/25 07:34:11;;;;;;;61.65;27.33;;;;;;;;;;5017496;28;20045;-74
2023/01/25 07:36:38;;;;;;;52.17;24.70;;;;;;;;;;5014881;28;20064;-74
2023/01/25 07:39:04;;;;;;;58.30;25.90;;;;;;;;;;5019423;28;20042;-74
2023/01/25 07:41:31;;;;;;;57.13;25.75;;;;;;;;;;5021472;28;20412;-75
2023/01/25 07:43:57;;;;;;;62.30;27.58;;;;;;;;;;5014778;28;20053;-74
2023/01/25 07:46:23;;;;;;;52.88;24.58;;;;;;;;;;5020291;28;20045;-74
2023/01/25 07:48:50;;;;;;;55.92;25.42;;;;;;;;;;5016126;28;20100;-74
2023/01/25 07:51:25;;;;;;;58.85;26.38;;;;;;;;;;5014968;28;20042;-74
2023/01/25 07:53:52;;;;;;;56.33;24.75;;;;;;;;;;5016822;28;20041;-74
2023/01/25 07:56:19;;;;;;;57.65;25.90;;;;;;;;;;5020008;28;20050;-74
2023/01/25 07:58:45;;;;;;;63.58;25.73;;;;;;;;;;5032831;28;20464;-74
2023/01/25 08:01:13;;;;;;;65.43;27.70;;;;;;;;;;5034199;28;20128;-74
2023/01/25 08:03:39;;;;;;;53.90;25.85;;;;;;;;;;5033586;28;20046;-74
2023/01/25 08:06:10;;;;;;;64.18;27.60;;;;;;;;;;5029098;28;20052;-73
2023/01/25 08:08:41;;;;;;;57.35;25.73;;;;;;;;;;5017010;28;20041;-74
2023/01/25 08:11:58;;;;;;;;;;;;;;;;;;;;;
2023/01/25 08:14:33;;;;;;;68.43;26.80;;;;;;;;;;4992383;28;20111;-74
2023/01/25 08:17:14;;;;;;;58.33;24.10;;;;;;;;;;5023982;28;20111;-75
2023/01/25 08:19:40;;;;;;;57.58;24.92;;;;;;;;;;5025492;28;20384;-74
2023/01/25 08:22:09;;;;;;;71.28;28.30;;;;;;;;;;5016063;28;20081;-78
2023/01/25 08:24:36;;;;;;;52.08;23.20;;;;;;;;;;5022118;28;20033;-75
2023/01/25 08:27:02;;;;;;;55.88;23.77;;;;;;;;;;5033166;28;20044;-76
2023/01/25 08:29:28;;;;;;;55.95;23.42;;;;;;;;;;5019686;28;20045;-75
2023/01/25 08:31:54;;;;;;;59.97;25.00;;;;;;;;;;5028954;28;20037;-74
2023/01/25 08:34:20;;;;;;;58.15;24.23;;;;;;;;;;5032153;28;20037;-74
2023/01/25 08:36:46;;;;;;;62.88;26.75;;;;;;;;;;5013370;28;20092;-77
2023/01/25 08:39:12;;;;;;;54.63;24.60;;;;;;;;;;5020295;28;20049;-74
2023/01/25 08:41:42;;;;;;;60.65;26.73;;;;;;;;;;5020224;28;20054;-73
2023/01/25 08:44:09;;;;;;;56.58;25.55;;;;;;;;;;5026040;28;20085;-72
2023/01/25 08:46:35;;;;;;;66.82;26.23;;;;;;;;;;5023091;28;20400;-72
2023/01/25 08:49:02;;;;;;;64.25;25.27;;;;;;;;;;5019791;28;20465;-73
2023/01/25 08:51:28;;;;;;;59.53;25.98;;;;;;;;;;5044857;28;20045;-73
2023/01/25 08:53:54;;;;;;;54.53;24.40;;;;;;;;;;5014269;28;20057;-72
2023/01/25 08:56:21;;;;;;;56.60;22.83;;;;;;;;;;5018847;28;20041;-74
2023/01/25 08:58:48;;;;;;;60.60;23.90;;;;;;;;;;5015229;28;20041;-74
2023/01/25 09:01:15;;;;;;;59.40;24.15;;;;;;;;;;5026464;28;20428;-75
2023/01/25 09:03:45;;;;;;;61.72;24.85;;;;;;;;;;5016659;28;20495;-74
2023/01/25 09:06:11;;;;;;;57.85;24.67;;;;;;;;;;5026218;28;20395;-74
2023/01/25 09:08:55;;;;;;;60.08;23.63;;;;;;;;;;5020929;28;20218;-77
2023/01/25 09:11:24;;;;;;;55.90;23.33;;;;;;;;;;5025831;28;20038;-74
2023/01/25 09:13:50;;;;;;;61.35;23.95;;;;;;;;;;5022421;28;20558;-73
2023/01/25 09:16:29;;;;;;;57.95;25.42;;;;;;;;;;5028368;28;20049;-74
2023/01/25 09:19:00;;;;;;;53.85;22.45;;;;;;;;;;5015336;28;20100;-74
2023/01/25 09:21:26;;;;;;;54.63;22.95;;;;;;;;;;5018682;28;20041;-74
2023/01/25 09:23:53;;;;;;;60.72;24.67;;;;;;;;;;5023286;28;20084;-74
2023/01/25 09:26:19;;;;;;;58.83;23.40;;;;;;;;;;5030063;28;20395;-74
2023/01/25 09:28:49;;;;;;;58.95;23.77;;;;;;;;;;5021290;28;20041;-74
2023/01/25 09:31:15;;;;;;;73.57;25.58;;;;;;;;;;5029568;28;20045;-74
2023/01/25 09:33:42;;;;;;;73.85;26.27;;;;;;;;;;5043977;28;20076;-75
2023/01/25 09:36:09;;;;;;;72.03;26.63;;;;;;;;;;5024593;28;20480;-78
2023/01/25 09:38:35;;;;;;;59.28;24.40;;;;;;;;;;5022620;28;20489;-75
2023/01/25 09:41:04;;;;;;;68.15;25.27;;;;;;;;;;5029922;28;20091;-75
2023/01/25 09:43:30;;;;;;;58.92;23.80;;;;;;;;;;5033762;28;20045;-75
2023/01/25 09:45:56;;;;;;;62.30;24.02;;;;;;;;;;5033074;28;20038;-76
2023/01/25 09:48:28;;;;;;;61.50;23.73;;;;;;;;;;5032435;28;20049;-75
2023/01/25 09:50:54;;;;;;;66.43;23.27;;;;;;;;;;5014254;28;20441;-75
2023/01/25 09:53:23;;;;;;;64.47;22.23;;;;;;;;;;5014945;28;20385;-75
2023/01/25 09:55:52;;;;;;;57.58;21.33;;;;;;;;;;5025380;28;20523;-74
2023/01/25 09:58:23;;;;;;;59.58;23.20;;;;;;;;;;5032227;28;20049;-74
2023/01/25 10:00:50;;;;;;;69.97;25.17;;;;;;;;;;5035108;28;20049;-74
2023/01/25 10:03:16;;;;;;;66.65;22.75;;;;;;;;;;5036533;28;20046;-74
2023/01/25 10:05:44;;;;;;;61.95;22.25;;;;;;;;;;5024915;28;20038;-74
2023/01/25 10:08:26;;;;;;;70.82;23.42;;;;;;;;;;5020129;28;20042;-74
2023/01/25 10:11:22;;;;;;;66.22;23.75;;;;;;;;;;5028561;28;20038;-74
2023/01/25 10:13:49;;;;;;;69.53;23.27;;;;;;;;;;5015391;28;20585;-74
2023/01/25 10:16:30;;;;;;;61.55;23.00;;;;;;;;;;5021986;28;20041;-74
2023/01/25 10:18:59;;;;;;;70.07;23.85;;;;;;;;;;5030270;28;20053;-74
2023/01/25 10:21:27;;;;;;;68.18;25.50;;;;;;;;;;5034429;28;20480;-74
2023/01/25 10:24:15;;;;;;;67.78;24.17;;;;;;;;;;5036085;28;20049;-74
2023/01/25 10:26:46;;;;;;;67.90;24.95;;;;;;;;;;5025269;28;20042;-74
2023/01/25 10:29:18;;;;;;;67.82;23.60;;;;;;;;;;5021844;28;20069;-74
2023/01/25 10:31:48;;;;;;;67.80;24.73;;;;;;;;;;5036344;28;20044;-74
2023/01/25 10:34:19;;;;;;;71.82;25.23;;;;;;;;;;5036588;28;20438;-74
2023/01/25 10:36:47;;;;;;;68.88;22.60;;;;;;;;;;5025546;28;20050;-73
2023/01/25 10:39:13;;;;;;;72.28;23.60;;;;;;;;;;5029329;28;20043;-75
2023/01/25 10:41:42;;;;;;;72.07;24.13;;;;;;;;;;5030659;28;20076;-74
2023/01/25 10:44:21;;;;;;;73.90;24.95;;;;;;;;;;5026388;28;20120;-74
2023/01/25 10:46:50;;;;;;;74.18;23.55;;;;;;;;;;5035938;28;20140;-74
2023/01/25 10:49:22;;;;;;;66.65;23.10;;;;;;;;;;5025371;28;20049;-74
2023/01/25 10:51:49;;;;;;;71.88;25.00;;;;;;;;;;5036925;28;20049;-75
2023/01/25 10:54:15;;;;;;;80.22;24.52;;;;;;;;;;5035458;28;20399;-75
2023/01/25 10:56:43;;;;;;;64.53;23.30;;;;;;;;;;5035696;28;20053;-75
2023/01/25 10:59:15;;;;;;;75.45;24.42;;;;;;;;;;5035514;28;20120;-75
2023/01/25 11:01:41;;;;;;;73.30;24.40;;;;;;;;;;5030368;28;20117;-75
2023/01/25 11:04:26;;;;;;;68.13;22.77;;;;;;;;;;5033982;28;20129;-75
2023/01/25 11:06:52;;;;;;;77.72;23.45;;;;;;;;;;5033122;28;20045;-75
2023/01/25 11:09:21;;;;;;;75.97;24.58;;;;;;;;;;5034358;28;20049;-75
2023/01/25 11:11:54;;;;;;;74.18;24.33;;;;;;;;;;5035085;28;20042;-75
2023/01/25 11:14:22;;;;;;;82.43;25.90;;;;;;;;;;5031966;28;20056;-75
2023/01/25 11:16:49;;;;;;;77.40;26.95;;;;;;;;;;5024743;28;20358;-75
2023/01/25 11:19:47;;;;;;;77.00;24.40;;;;;;;;;;5033486;28;20042;-75
2023/01/25 11:22:19;;;;;;;83.85;26.33;;;;;;;;;;5013454;28;20053;-78
2023/01/25 11:24:45;;;;;;;80.55;24.92;;;;;;;;;;5026823;28;20055;-76
2023/01/25 11:27:13;;;;;;;79.00;25.98;;;;;;;;;;5031608;28;20049;-76
2023/01/25 11:29:39;;;;;;;70.55;23.90;;;;;;;;;;5038327;28;20097;-76
2023/01/25 11:32:14;;;;;;;74.05;24.83;;;;;;;;;;5021131;28;20050;-75
2023/01/25 11:34:40;;;;;;;74.82;24.90;;;;;;;;;;5024618;28;20045;-75
2023/01/25 11:37:35;;;;;;;76.35;27.77;;;;;;;;;;5018936;28;20038;-75
2023/01/25 11:40:18;;;;;;;71.63;25.40;;;;;;;;;;5013082;28;20512;-75
2023/01/25 11:42:45;;;;;;;78.22;27.23;;;;;;;;;;5016681;28;20046;-75
2023/01/25 11:45:14;;;;;;;76.93;25.35;;;;;;;;;;5039569;28;20455;-75
2023/01/25 11:47:59;;;;;;;77.25;27.95;;;;;;;;;;5028881;28;20045;-75
2023/01/25 11:50:25;;;;;;;82.93;27.13;;;;;;;;;;5029385;28;20069;-75
2023/01/25 11:52:51;;;;;;;78.90;26.77;;;;;;;;;;5018191;28;20045;-78
2023/01/25 11:55:25;;;;;;;79.65;27.33;;;;;;;;;;5022541;28;20095;-79
2023/01/25 11:57:58;;;;;;;77.60;26.48;;;;;;;;;;5015905;28;20049;-79
2023/01/25 12:00:24;;;;;;;87.25;28.50;;;;;;;;;;5024210;28;20053;-78
2023/01/25 12:02:53;;;;;;;95.50;29.00;;;;;;;;;;5035789;28;20041;-78
2023/01/25 12:05:25;;;;;;;81.07;28.08;;;;;;;;;;5033694;28;20112;-75
2023/01/25 12:07:55;;;;;;;83.65;26.02;;;;;;;;;;5024765;28;20072;-76
2023/01/25 12:10:43;;;;;;;85.60;28.05;;;;;;;;;;5043002;28;20048;-76
2023/01/25 12:13:32;;;;;;;88.50;27.55;;;;;;;;;;5025198;28;20056;-76
2023/01/25 12:15:58;;;;;;;79.95;26.65;;;;;;;;;;5022350;28;20057;-76
2023/01/25 12:18:46;;;;;;;82.75;28.38;;;;;;;;;;5032494;28;20049;-76
2023/01/25 12:21:24;;;;;;;84.43;29.25;;;;;;;;;;5020426;28;20144;-76
2023/01/25 12:23:59;;;;;;;79.32;29.33;;;;;;;;;;5022014;28;20041;-76
2023/01/25 12:26:28;;;;;;;80.28;28.17;;;;;;;;;;5014012;28;20129;-76
2023/01/25 12:28:54;;;;;;;81.45;27.08;;;;;;;;;;5029165;28;20060;-76
2023/01/25 12:31:23;;;;;;;77.60;26.52;;;;;;;;;;5027234;28;20476;-76
2023/01/25 12:34:00;;;;;;;94.30;30.15;;;;;;;;;;5025896;28;20056;-76
2023/01/25 12:36:30;;;;;;;83.47;29.23;;;;;;;;;;5013839;28;20049;-76
2023/01/25 12:39:05;;;;;;;77.55;27.63;;;;;;;;;;5026018;28;20496;-76
2023/01/25 12:41:35;;;;;;;79.00;28.40;;;;;;;;;;5013982;28;20095;-76
2023/01/25 12:44:13;;;;;;;87.65;27.58;;;;;;;;;;5019827;28;20048;-76
2023/01/25 12:46:43;;;;;;;74.90;26.60;;;;;;;;;;5033059;28;20120;-76
2023/01/25 12:49:23;;;;;;;80.90;29.10;;;;;;;;;;5029084;28;20095;-76
2023/01/25 12:51:51;;;;;;;72.50;26.60;;;;;;;;;;5034433;28;20060;-76
2023/01/25 12:54:27;;;;;;;72.43;26.17;;;;;;;;;;5033887;28;20048;-76
2023/01/25 12:56:57;;;;;;;78.20;26.63;;;;;;;;;;5033738;28;20050;-76
2023/01/25 12:59:30;;;;;;;75.47;25.98;;;;;;;;;;5032909;28;20053;-76
2023/01/25 13:02:34;;;;;;;75.07;26.27;;;;;;;;;;5025595;28;20045;-76
2023/01/25 13:05:14;;;;;;;81.50;28.17;;;;;;;;;;4953053;29;20071;-76
2023/01/25 13:07:46;;;;;;;78.97;28.02;;;;;;;;;;4952938;29;20043;-76
2023/01/25 13:10:15;;;;;;;79.65;27.75;;;;;;;;;;4953247;29;20056;-76
2023/01/25 13:12:54;;;;;;;70.15;26.65;;;;;;;;;;4952531;29;20043;-76
2023/01/25 13:15:36;;;;;;;77.85;28.17;;;;;;;;;;4952672;29;20422;-76
2023/01/25 13:18:23;;;;;;;72.57;26.00;;;;;;;;;;4965661;28;20500;-76
2023/01/25 13:20:50;;;;;;;76.97;27.58;;;;;;;;;;4947024;28;20066;-75
2023/01/25 13:23:28;;;;;;;73.20;26.45;;;;;;;;;;4962094;28;20051;-76
2023/01/25 13:26:14;;;;;;;73.13;28.40;;;;;;;;;;4956396;28;20097;-76
2023/01/25 13:28:46;;;;;;;74.45;27.83;;;;;;;;;;4958024;28;20106;-76
2023/01/25 13:31:41;;;;;;;70.72;26.70;;;;;;;;;;4955211;28;20047;-76
2023/01/25 13:34:26;;;;;;;79.95;27.92;;;;;;;;;;4955661;28;20058;-76
2023/01/25 13:36:53;;;;;;;78.97;27.15;;;;;;;;;;5027510;28;20050;-75
2023/01/25 13:39:28;;;;;;;68.55;27.30;;;;;;;;;;5019835;28;20061;-76
2023/01/25 13:41:57;;;;;;;70.03;26.27;;;;;;;;;;5031787;28;20444;-76
2023/01/25 13:44:27;;;;;;;75.45;26.80;;;;;;;;;;5027030;28;20395;-76
2023/01/25 13:46:53;;;;;;;71.53;26.67;;;;;;;;;;5036456;28;20403;-76
2023/01/25 13:49:23;;;;;;;73.28;28.02;;;;;;;;;;5032612;28;20038;-76
2023/01/25 13:51:49;;;;;;;69.13;24.85;;;;;;;;;;5029511;28;20054;-76
2023/01/25 13:54:16;;;;;;;77.80;29.67;;;;;;;;;;5028724;28;20053;-76
2023/01/25 13:56:42;;;;;;;70.13;28.20;;;;;;;;;;5036693;28;20121;-76
2023/01/25 13:59:27;;;;;;;68.22;25.88;;;;;;;;;;5031346;28;20053;-75
2023/01/25 14:01:53;;;;;;;63.80;25.25;;;;;;;;;;5023150;28;20048;-75
2023/01/25 14:04:19;;;;;;;70.70;26.20;;;;;;;;;;5026207;28;20053;-75
2023/01/25 14:06:45;;;;;;;63.85;24.88;;;;;;;;;;5031997;28;20045;-75
2023/01/25 14:09:13;;;;;;;65.50;25.58;;;;;;;;;;5022449;28;20065;-75
2023/01/25 14:11:44;;;;;;;68.88;26.10;;;;;;;;;;5039861;28;20128;-75
2023/01/25 14:14:16;;;;;;;63.85;25.30;;;;;;;;;;5035825;28;20046;-75
2023/01/25 14:16:42;;;;;;;67.45;26.25;;;;;;;;;;5028986;28;20082;-75
2023/01/25 14:19:22;;;;;;;68.32;26.15;;;;;;;;;;5034398;28;20041;-76
2023/01/25 14:22:06;;;;;;;69.95;27.55;;;;;;;;;;5013520;28;20125;-75
2023/01/25 14:24:32;;;;;;;62.72;25.17;;;;;;;;;;5015438;28;20054;-75
2023/01/25 14:26:58;;;;;;;63.00;24.80;;;;;;;;;;5016220;28;20553;-75
2023/01/25 14:29:26;;;;;;;64.28;26.70;;;;;;;;;;5016683;28;20045;-75